WetterOnline ( https://www.wetteronline.de )

Wetter aktuell Goslar

Aktuelles Wetter: Brocken (1141m)

6-stündlich | Neueste Meldungen
Ortszeit Temperatur Wetter
Mo, 16.05. 20:00 12.5° C wolkig
Mo, 16.05. 14:00 14.7° C bewölkt
Mo, 16.05. 8:00 10.6° C leicht bewölkt
Mo, 16.05. 2:00 9.4° C wolkenlos
So, 15.05. 20:00 11.2° C leicht bewölkt
So, 15.05. 14:00 13.8° C leicht bewölkt
So, 15.05. 8:00 10.8° C wolkenlos
So, 15.05. 2:00 6.2° C wolkenlos
Ortszeit Temperatur Wetter
Mo, 16.05. 23:30 11.0° C Nebel
Mo, 16.05. 23:20 11.0° C Nebel
Mo, 16.05. 23:10 11.0° C Nebel
Mo, 16.05. 23:00 11.0° C Nebel
Mo, 16.05. 22:50 11.0° C Nebel
Mo, 16.05. 22:40 11.0° C Nebel
Mo, 16.05. 22:30 11.2° C wolkig
Mo, 16.05. 22:00 11.7° C bedeckt
Mo, 16.05. 21:30 11.7° C bedeckt
Mo, 16.05. 21:00 11.9° C bewölkt
Mo, 16.05. 20:30 12.2° C bedeckt
Ortszeit Relative Feuchte Sichtweite
Mo, 16.05. 20:00 85% 45 km
Mo, 16.05. 14:00 64% 50 km
Mo, 16.05. 8:00 64% 40 km
Mo, 16.05. 2:00 68% 60 km
So, 15.05. 20:00 66% 35 km
So, 15.05. 14:00 59% 30 km
So, 15.05. 8:00 69% 29 km
So, 15.05. 2:00 86% 24 km
Ortszeit Relative Feuchte Sichtweite
Mo, 16.05. 23:30 100% <100 m
Mo, 16.05. 23:20 100% -
Mo, 16.05. 23:10 100% -
Mo, 16.05. 23:00 100% <100 m
Mo, 16.05. 22:50 100% -
Mo, 16.05. 22:40 100% -
Mo, 16.05. 22:30 96% 9 km
Mo, 16.05. 22:00 88% 29 km
Mo, 16.05. 21:30 90% 26 km
Mo, 16.05. 21:00 90% 26 km
Mo, 16.05. 20:30 87% 40 km
Ortszeit Niederschlagsmenge Niederschlagsart
Mo, 16.05. 20:00 0.1 l/m2 in 12 Std. Regen
Mo, 16.05. 14:00 0.0 l/m2 in 6 Std. -
Mo, 16.05. 8:00 0.0 l/m2 in 12 Std. -
Mo, 16.05. 2:00 0.0 l/m2 in 6 Std. -
So, 15.05. 20:00 0.0 l/m2 in 12 Std. -
So, 15.05. 14:00 0.0 l/m2 in 6 Std. -
So, 15.05. 8:00 0.0 l/m2 in 12 Std. -
So, 15.05. 2:00 0.0 l/m2 in 6 Std. -
Ortszeit Niederschlagsmenge Niederschlagsart
Mo, 16.05. 23:30 0.0 l/m2 in 1 Std. -
Mo, 16.05. 23:20 keine Meldung -
Mo, 16.05. 23:10 keine Meldung -
Mo, 16.05. 23:00 0.0 l/m2 in 1 Std. -
Mo, 16.05. 22:50 keine Meldung -
Mo, 16.05. 22:40 keine Meldung -
Mo, 16.05. 22:30 0.0 l/m2 in 1 Std. -
Mo, 16.05. 22:00 0.0 l/m2 in 1 Std. -
Mo, 16.05. 21:30 0.0 l/m2 in 1 Std. -
Mo, 16.05. 21:00 0.0 l/m2 in 1 Std. -
Mo, 16.05. 20:30 0.0 l/m2 in 1 Std. -
Ortszeit Stärke Spitze Richtung
km/h Bft. km/h Grad Sektor
Mo, 16.05. 20:00 9 2 46 320° NW
Mo, 16.05. 14:00 37 5 48 200° S
Mo, 16.05. 8:00 29 5 32 170° S
Mo, 16.05. 2:00 28 4 37 160° S
So, 15.05. 20:00 17 3 30 120° SO
So, 15.05. 14:00 13 3 26 90° O
So, 15.05. 8:00 6 1 19 270° W
So, 15.05. 2:00 11 2 32 30° NO
Ortszeit Stärke Spitze Richtung
km/h Bft. km/h Grad Sektor
Mo, 16.05. 23:30 33 5 46 280° W
Mo, 16.05. 23:20 33 5 - 280° W
Mo, 16.05. 23:10 36 5 - 280° W
Mo, 16.05. 23:00 35 5 44 280° W
Mo, 16.05. 22:50 35 5 - 280° W
Mo, 16.05. 22:40 33 5 - 270° W
Mo, 16.05. 22:30 32 5 40 280° W
Mo, 16.05. 22:00 28 4 33 300° NW
Mo, 16.05. 21:30 25 4 29 290° W
Mo, 16.05. 21:00 22 4 25 280° W
Mo, 16.05. 20:30 17 3 20 280° W
Ortszeit Untergrenze Bedeckung Gattung
total tief tief mittel hoch
Mo, 16.05. 20:00 1380 m 8/8 2/8 - - -
Mo, 16.05. 14:00 2100 m 8/8 6/8 - - -
Mo, 16.05. 8:00 5700 m 2/8 2/8 - - -
Mo, 16.05. 2:00 - 0/8 0/8 - - -
So, 15.05. 20:00 9000 m 4/8 0/8 - - -
So, 15.05. 14:00 870 m 3/8 3/8 - - -
So, 15.05. 8:00 - 0/8 0/8 - - -
So, 15.05. 2:00 - 0/8 0/8 - - -
Ortszeit Bedeckungsgrad in Achtel und Wolkenuntergrenze
Mo, 16.05. 23:30 8(<30m)
Mo, 16.05. 23:20 8(<30m)
Mo, 16.05. 23:10 8
Mo, 16.05. 23:00 8(<30m)
Mo, 16.05. 22:50 8(<30m)
Mo, 16.05. 22:40 8
Mo, 16.05. 22:30 1(60m) 8(3600m)
Mo, 16.05. 22:00 8(3900m)
Mo, 16.05. 21:30 6(4500m) 8(5100m)
Mo, 16.05. 21:00 3(540m) 7(2400m) 8(5100m)
Mo, 16.05. 20:30 1(540m) 4(900m) 8(2400m)
Ortszeit Stationsdruck (hPa) Tendenz (hPa in 3 Std.)
Mo, 16.05. 20:00 888 - 0,1
Mo, 16.05. 14:00 888 - 0,3
Mo, 16.05. 8:00 888 - 0,3
Mo, 16.05. 2:00 889 - 0,1
So, 15.05. 20:00 890 - 0,8
So, 15.05. 14:00 891 - 0,1
So, 15.05. 8:00 891 + 0,7
So, 15.05. 2:00 890 - 0,1
Ortszeit Stationsdruck (hPa) Tendenz (hPa in 3 Std.)
Mo, 16.05. 23:30 888 + 0,8
Mo, 16.05. 23:20 888 keine Meldung
Mo, 16.05. 23:10 888 keine Meldung
Mo, 16.05. 23:00 888 + 0,7
Mo, 16.05. 22:50 888 keine Meldung
Mo, 16.05. 22:40 888 keine Meldung
Mo, 16.05. 22:30 888 + 0,7
Mo, 16.05. 22:00 888 + 0,8
Mo, 16.05. 21:30 888 + 0,5
Mo, 16.05. 21:00 888 + 0,2
Mo, 16.05. 20:30 888 + 0,2
Ortszeit Schneehöhe (cm)
Mo, 16.05. 20:00 0
Mo, 16.05. 14:00 0
Mo, 16.05. 8:00 0
Mo, 16.05. 2:00 0
So, 15.05. 20:00 0
So, 15.05. 14:00 0
So, 15.05. 8:00 0
So, 15.05. 2:00 0
Ortszeit Schneehöhe (cm)
Mo, 16.05. 23:30 0
Mo, 16.05. 23:20 0
Mo, 16.05. 23:10 0
Mo, 16.05. 23:00 0
Mo, 16.05. 22:50 0
Mo, 16.05. 22:40 0
Mo, 16.05. 22:30 0
Mo, 16.05. 22:00 0
Mo, 16.05. 21:30 0
Mo, 16.05. 21:00 0
Mo, 16.05. 20:30 0
Link zu dieser Seite / Seite empfehlen

Das Wetter in ...